Time,TemperatureF,DewpointF,PressureIn,WindDirection,WindDirectionDegrees,WindSpeedMPH,WindSpeedGustMPH,Humidity,HourlyPrecipIn,Conditions,Clouds,dailyrainin,SoftwareType,DateUTC
2013-06-23 00:01:00,78.0,-99.9,30.16,South,182,13.0,15.0,-999,-99.99,,,-99.99,,2013-06-23 04:01:00,
2013-06-23 00:11:00,78.0,-99.9,30.15,South,179,14.0,16.0,-999,-99.99,,,-99.99,,2013-06-23 04:11:00,
2013-06-23 00:31:00,78.0,-99.9,30.16,South,170,16.0,19.0,-999,-99.99,,,-99.99,,2013-06-23 04:31:00,
2013-06-23 00:52:00,78.0,-99.9,30.16,South,171,15.0,16.0,-999,-99.99,,,-99.99,,2013-06-23 04:52:00,
2013-06-23 01:01:00,78.0,-99.9,30.16,South,173,14.0,16.0,-999,-99.99,,,-99.99,,2013-06-23 05:01:00,
2013-06-23 01:11:00,78.0,-99.9,30.16,South,177,12.0,14.0,-999,-99.99,,,-99.99,,2013-06-23 05:11:00,
2013-06-23 01:32:00,78.0,-99.9,30.16,South,189,12.0,14.0,-999,-99.99,,,-99.99,,2013-06-23 05:32:00,
2013-06-23 01:42:00,77.0,-99.9,30.16,SSW,192,13.0,14.0,-999,-99.99,,,-99.99,,2013-06-23 05:42:00,
2013-06-23 01:52:00,77.0,-99.9,30.16,SSW,193,13.0,15.0,-999,-99.99,,,-99.99,,2013-06-23 05:52:00,
2013-06-23 02:02:00,77.0,-99.9,30.15,SSW,199,13.0,15.0,-999,-99.99,,,-99.99,,2013-06-23 06:02:00,
2013-06-23 02:12:00,77.0,-99.9,30.15,SSW,200,12.0,14.0,-999,-99.99,,,-99.99,,2013-06-23 06:12:00,
2013-06-23 02:33:00,77.0,-99.9,30.15,South,189,12.0,13.0,-999,-99.99,,,-99.99,,2013-06-23 06:33:00,
2013-06-23 02:43:00,77.0,-99.9,30.14,SSW,196,11.0,13.0,-999,-99.99,,,-99.99,,2013-06-23 06:43:00,
2013-06-23 02:52:00,77.0,-99.9,30.15,SSW,196,10.0,12.0,-999,-99.99,,,-99.99,,2013-06-23 06:52:00,
2013-06-23 03:02:00,77.0,-99.9,30.15,SSW,196,9.0,11.0,-999,-99.99,,,-99.99,,2013-06-23 07:02:00,
2013-06-23 03:12:00,77.0,-99.9,30.15,SSW,200,10.0,11.0,-999,-99.99,,,-99.99,,2013-06-23 07:12:00,
2013-06-23 03:34:00,77.0,-99.9,30.15,SW,216,7.0,9.0,-999,-99.99,,,-99.99,,2013-06-23 07:34:00,
2013-06-23 03:43:00,77.0,-99.9,30.15,SW,220,6.0,8.0,-999,-99.99,,,-99.99,,2013-06-23 07:43:00,
2013-06-23 03:53:00,76.0,-99.9,30.15,WSW,250,5.0,6.0,-999,-99.99,,,-99.99,,2013-06-23 07:53:00,
2013-06-23 04:02:00,76.0,-99.9,30.15,WSW,252,4.0,6.0,-999,-99.99,,,-99.99,,2013-06-23 08:02:00,
2013-06-23 04:12:00,76.0,-99.9,30.15,West,259,2.0,4.0,-999,-99.99,,,-99.99,,2013-06-23 08:12:00,
2013-06-23 04:34:00,76.0,-99.9,30.15,WNW,286,2.0,3.0,-999,-99.99,,,-99.99,,2013-06-23 08:34:00,
2013-06-23 04:43:00,76.0,-99.9,30.15,NW,310,0.0,2.0,-999,-99.99,,,-99.99,,2013-06-23 08:43:00,
2013-06-23 04:53:00,76.0,-99.9,30.15,NE,52,1.0,1.0,-999,-99.99,,,-99.99,,2013-06-23 08:53:00,
2013-06-23 05:02:00,76.0,-99.9,30.16,ENE,74,1.0,2.0,-999,-99.99,,,-99.99,,2013-06-23 09:02:00,
2013-06-23 05:12:00,76.0,-99.9,30.16,ENE,76,1.0,2.0,-999,-99.99,,,-99.99,,2013-06-23 09:12:00,
2013-06-23 05:34:00,76.0,-99.9,30.15,ESE,116,2.0,2.0,-999,-99.99,,,-99.99,,2013-06-23 09:34:00,
2013-06-23 05:43:00,76.0,-99.9,30.15,SE,140,2.0,2.0,-999,-99.99,,,-99.99,,2013-06-23 09:43:00,
2013-06-23 05:54:00,76.0,-99.9,30.16,SE,136,1.0,2.0,-999,-99.99,,,-99.99,,2013-06-23 09:54:00,
2013-06-23 06:02:00,76.0,-99.9,30.16,SSE,148,2.0,2.0,-999,-99.99,,,-99.99,,2013-06-23 10:02:00,
2013-06-23 06:12:00,76.0,-99.9,30.16,South,180,1.0,2.0,-999,-99.99,,,-99.99,,2013-06-23 10:12:00,
2013-06-23 06:34:00,76.0,-99.9,30.16,South,186,2.0,2.0,-999,-99.99,,,-99.99,,2013-06-23 10:34:00,
2013-06-23 06:43:00,76.0,-99.9,30.17,South,177,2.0,2.0,-999,-99.99,,,-99.99,,2013-06-23 10:43:00,
2013-06-23 06:53:00,76.0,-99.9,30.17,SE,131,4.0,4.0,-999,-99.99,,,-99.99,,2013-06-23 10:53:00,
2013-06-23 07:02:00,77.0,-99.9,30.16,ESE,120,4.0,5.0,-999,-99.99,,,-99.99,,2013-06-23 11:02:00,
2013-06-23 07:11:00,77.0,-99.9,30.17,ESE,120,6.0,7.0,-999,-99.99,,,-99.99,,2013-06-23 11:11:00,
2013-06-23 07:33:00,77.0,-99.9,30.17,SE,144,6.0,7.0,-999,-99.99,,,-99.99,,2013-06-23 11:33:00,
2013-06-23 07:43:00,78.0,-99.9,30.17,SE,125,6.0,6.0,-999,-99.99,,,-99.99,,2013-06-23 11:43:00,
2013-06-23 07:53:00,78.0,-99.9,30.17,SE,125,6.0,6.0,-999,-99.99,,,-99.99,,2013-06-23 11:53:00,
2013-06-23 08:01:00,78.0,-99.9,30.18,SE,131,5.0,6.0,-999,-99.99,,,-99.99,,2013-06-23 12:01:00,
2013-06-23 08:12:00,78.0,-99.9,30.18,ESE,121,5.0,6.0,-999,-99.99,,,-99.99,,2013-06-23 12:12:00,
2013-06-23 09:02:00,78.0,-99.9,30.19,SE,143,8.0,9.0,-999,-99.99,,,-99.99,,2013-06-23 13:02:00,
2013-06-23 09:24:00,78.0,-99.9,30.19,SSE,160,8.0,9.0,-999,-99.99,,,-99.99,,2013-06-23 13:24:00,
2013-06-23 09:34:00,78.0,-99.9,30.20,SSE,164,8.0,10.0,-999,-99.99,,,-99.99,,2013-06-23 13:34:00,
2013-06-23 09:43:00,78.0,-99.9,30.19,South,171,6.0,7.0,-999,-99.99,,,-99.99,,2013-06-23 13:43:00,
2013-06-23 09:54:00,79.0,-99.9,30.19,South,171,5.0,6.0,-999,-99.99,,,-99.99,,2013-06-23 13:54:00,
2013-06-23 10:05:00,79.0,-99.9,30.19,SE,135,3.0,5.0,-999,-99.99,,,-99.99,,2013-06-23 14:05:00,
2013-06-23 10:34:00,80.0,-99.9,30.20,SE,129,10.0,11.0,-999,-99.99,,,-99.99,,2013-06-23 14:34:00,
2013-06-23 10:44:00,78.0,-99.9,30.20,SSE,158,11.0,13.0,-999,-99.99,,,-99.99,,2013-06-23 14:44:00,
2013-06-23 10:52:00,78.0,-99.9,30.20,SSE,167,12.0,13.0,-999,-99.99,,,-99.99,,2013-06-23 14:52:00,
2013-06-23 11:05:00,78.0,-99.9,30.21,South,171,10.0,11.0,-999,-99.99,,,-99.99,,2013-06-23 15:05:00,
2013-06-23 11:23:00,74.0,-99.9,30.22,South,189,19.0,23.0,-999,-99.99,,,-99.99,,2013-06-23 15:23:00,
2013-06-23 11:35:00,74.0,-99.9,30.21,South,184,10.0,14.0,-999,-99.99,,,-99.99,,2013-06-23 15:35:00,
2013-06-23 11:43:00,74.0,-99.9,30.21,South,182,7.0,8.0,-999,-99.99,,,-99.99,,2013-06-23 15:43:00,
2013-06-23 11:53:00,75.0,-99.9,30.21,SSW,193,7.0,8.0,-999,-99.99,,,-99.99,,2013-06-23 15:53:00,
2013-06-23 12:06:00,76.0,-99.9,30.21,SSW,211,7.0,9.0,-999,-99.99,,,-99.99,,2013-06-23 16:06:00,
2013-06-23 12:12:00,76.0,-99.9,30.21,SSW,209,7.0,8.0,-999,-99.99,,,-99.99,,2013-06-23 16:12:00,
2013-06-23 12:22:00,76.0,-99.9,30.21,SSW,209,7.0,8.0,-999,-99.99,,,-99.99,,2013-06-23 16:22:00,
2013-06-23 12:36:00,76.0,-99.9,30.20,SW,214,7.0,9.0,-999,-99.99,,,-99.99,,2013-06-23 16:36:00,
2013-06-23 12:43:00,77.0,-99.9,30.20,South,191,7.0,9.0,-999,-99.99,,,-99.99,,2013-06-23 16:43:00,
2013-06-23 13:06:00,78.0,-99.9,30.20,SSW,205,7.0,8.0,-999,-99.99,,,-99.99,,2013-06-23 17:06:00,
2013-06-23 13:12:00,79.0,-99.9,30.20,SSW,194,6.0,8.0,-999,-99.99,,,-99.99,,2013-06-23 17:12:00,
2013-06-23 13:34:00,78.0,-99.9,30.19,South,176,6.0,8.0,-999,-99.99,,,-99.99,,2013-06-23 17:34:00,
2013-06-23 13:43:00,78.0,-99.9,30.19,SSE,165,7.0,8.0,-999,-99.99,,,-99.99,,2013-06-23 17:43:00,
2013-06-23 13:53:00,78.0,-99.9,30.19,SE,141,10.0,11.0,-999,-99.99,,,-99.99,,2013-06-23 17:53:00,
2013-06-23 14:01:00,78.0,-99.9,30.19,SSE,161,12.0,13.0,-999,-99.99,,,-99.99,,2013-06-23 18:01:00,
2013-06-23 14:22:00,78.0,-99.9,30.19,SSE,165,12.0,14.0,-999,-99.99,,,-99.99,,2013-06-23 18:22:00,
2013-06-23 14:34:00,78.0,-99.9,30.19,South,170,11.0,13.0,-999,-99.99,,,-99.99,,2013-06-23 18:34:00,
2013-06-23 14:43:00,78.0,-99.9,30.19,SSE,161,11.0,13.0,-999,-99.99,,,-99.99,,2013-06-23 18:43:00,
2013-06-23 14:53:00,78.0,-99.9,30.18,SSE,162,13.0,14.0,-999,-99.99,,,-99.99,,2013-06-23 18:53:00,
2013-06-23 15:01:00,78.0,-99.9,30.18,SSE,163,14.0,15.0,-999,-99.99,,,-99.99,,2013-06-23 19:01:00,
2013-06-23 15:22:00,78.0,-99.9,30.17,SSE,164,15.0,17.0,-999,-99.99,,,-99.99,,2013-06-23 19:22:00,
2013-06-23 15:32:00,78.0,-99.9,30.17,SSE,166,15.0,19.0,-999,-99.99,,,-99.99,,2013-06-23 19:32:00,
2013-06-23 15:43:00,78.0,-99.9,30.17,SSE,165,16.0,18.0,-999,-99.99,,,-99.99,,2013-06-23 19:43:00,
2013-06-23 15:53:00,78.0,-99.9,30.17,SSE,163,17.0,19.0,-999,-99.99,,,-99.99,,2013-06-23 19:53:00,
2013-06-23 16:02:00,78.0,-99.9,30.16,SSE,159,19.0,20.0,-999,-99.99,,,-99.99,,2013-06-23 20:02:00,
2013-06-23 16:12:00,78.0,-99.9,30.16,SSE,157,18.0,20.0,-999,-99.99,,,-99.99,,2013-06-23 20:12:00,
2013-06-23 16:34:00,78.0,-99.9,30.16,SSE,159,17.0,19.0,-999,-99.99,,,-99.99,,2013-06-23 20:34:00,
2013-06-23 16:42:00,78.0,-99.9,30.16,SSE,158,17.0,18.0,-999,-99.99,,,-99.99,,2013-06-23 20:42:00,
2013-06-23 16:53:00,78.0,-99.9,30.16,SSE,148,16.0,19.0,-999,-99.99,,,-99.99,,2013-06-23 20:53:00,
2013-06-23 17:01:00,78.0,-99.9,30.17,SSE,149,18.0,21.0,-999,-99.99,,,-99.99,,2013-06-23 21:01:00,
2013-06-23 17:12:00,78.0,-99.9,30.16,SSE,152,17.0,21.0,-999,-99.99,,,-99.99,,2013-06-23 21:12:00,
2013-06-23 17:44:00,76.0,-99.9,30.16,SSE,160,20.0,22.0,-999,-99.99,,,-99.99,,2013-06-23 21:44:00,
2013-06-23 17:52:00,76.0,-99.9,30.16,South,174,16.0,21.0,-999,-99.99,,,-99.99,,2013-06-23 21:52:00,
2013-06-23 18:01:00,76.0,-99.9,30.16,South,174,16.0,21.0,-999,-99.99,,,-99.99,,2013-06-23 22:01:00,
2013-06-23 18:22:00,77.0,-99.9,30.17,SSE,166,16.0,18.0,-999,-99.99,,,-99.99,,2013-06-23 22:22:00,
2013-06-23 18:33:00,78.0,-99.9,30.17,SSE,164,15.0,17.0,-999,-99.99,,,-99.99,,2013-06-23 22:33:00,
2013-06-23 18:43:00,78.0,-99.9,30.17,South,175,16.0,19.0,-999,-99.99,,,-99.99,,2013-06-23 22:43:00,
2013-06-23 18:53:00,78.0,-99.9,30.17,South,176,15.0,17.0,-999,-99.99,,,-99.99,,2013-06-23 22:53:00,
2013-06-23 19:01:00,78.0,-99.9,30.18,South,183,13.0,16.0,-999,-99.99,,,-99.99,,2013-06-23 23:01:00,
2013-06-23 19:12:00,78.0,-99.9,30.18,South,182,14.0,14.0,-999,-99.99,,,-99.99,,2013-06-23 23:12:00,
2013-06-23 19:33:00,78.0,-99.9,30.18,South,187,15.0,17.0,-999,-99.99,,,-99.99,,2013-06-23 23:33:00,
2013-06-23 19:44:00,78.0,-99.9,30.18,South,182,15.0,17.0,-999,-99.99,,,-99.99,,2013-06-23 23:44:00,
2013-06-23 19:52:00,78.0,-99.9,30.18,South,182,15.0,16.0,-999,-99.99,,,-99.99,,2013-06-23 23:52:00,
2013-06-23 20:01:00,78.0,-99.9,30.17,South,176,16.0,17.0,-999,-99.99,,,-99.99,,2013-06-24 00:01:00,
2013-06-23 20:11:00,78.0,-99.9,30.16,South,173,15.0,18.0,-999,-99.99,,,-99.99,,2013-06-24 00:11:00,
2013-06-23 20:33:00,78.0,-99.9,30.16,South,183,17.0,19.0,-999,-99.99,,,-99.99,,2013-06-24 00:33:00,
2013-06-23 20:43:00,78.0,-99.9,30.16,South,177,15.0,17.0,-999,-99.99,,,-99.99,,2013-06-24 00:43:00,
2013-06-23 20:52:00,78.0,-99.9,30.17,SSW,194,12.0,16.0,-999,-99.99,,,-99.99,,2013-06-24 00:52:00,
2013-06-23 21:02:00,78.0,-99.9,30.17,SSW,197,13.0,16.0,-999,-99.99,,,-99.99,,2013-06-24 01:02:00,
2013-06-23 21:11:00,78.0,-99.9,30.18,SSW,201,17.0,18.0,-999,-99.99,,,-99.99,,2013-06-24 01:11:00,
2013-06-23 21:32:00,78.0,-99.9,30.19,SSW,201,15.0,16.0,-999,-99.99,,,-99.99,,2013-06-24 01:32:00,
2013-06-23 21:42:00,78.0,-99.9,30.19,SSW,206,14.0,16.0,-999,-99.99,,,-99.99,,2013-06-24 01:42:00,
2013-06-23 21:53:00,78.0,-99.9,30.19,SSW,205,13.0,15.0,-999,-99.99,,,-99.99,,2013-06-24 01:53:00,
2013-06-23 22:02:00,78.0,-99.9,30.19,SSW,201,13.0,16.0,-999,-99.99,,,-99.99,,2013-06-24 02:02:00,
2013-06-23 22:11:00,78.0,-99.9,30.19,SSW,197,15.0,17.0,-999,-99.99,,,-99.99,,2013-06-24 02:11:00,
2013-06-23 22:22:00,78.0,-99.9,30.19,SSW,197,15.0,17.0,-999,-99.99,,,-99.99,,2013-06-24 02:22:00,
2013-06-23 22:42:00,78.0,-99.9,30.19,South,187,17.0,18.0,-999,-99.99,,,-99.99,,2013-06-24 02:42:00,
2013-06-23 23:01:00,78.0,-99.9,30.19,South,187,17.0,19.0,-999,-99.99,,,-99.99,,2013-06-24 03:01:00,
2013-06-23 23:11:00,78.0,-99.9,30.19,South,189,16.0,18.0,-999,-99.99,,,-99.99,,2013-06-24 03:11:00,
2013-06-23 23:33:00,78.0,-99.9,30.20,SSW,194,13.0,18.0,-999,-99.99,,,-99.99,,2013-06-24 03:33:00,
2013-06-23 23:43:00,78.0,-99.9,30.20,South,190,13.0,15.0,-999,-99.99,,,-99.99,,2013-06-24 03:43:00,
2013-06-23 23:53:00,78.0,-99.9,30.19,South,189,15.0,17.0,-999,-99.99,,,-99.99,,2013-06-24 03:53:00,